sensor_id;sensor_type;location;lat;lon;timestamp;pressure;altitude;pressure_sealevel;temperature;humidity
77110;BME280;66062;52.464;16.922;2023-05-18T00:01:53;101617.84;;;7.54;73.10
77110;BME280;66062;52.464;16.922;2023-05-18T00:04:19;101620.81;;;7.36;73.43
77110;BME280;66062;52.464;16.922;2023-05-18T00:06:51;101618.31;;;7.32;73.76
77110;BME280;66062;52.464;16.922;2023-05-18T00:09:28;101618.22;;;7.20;73.66
77110;BME280;66062;52.464;16.922;2023-05-18T00:11:54;101622.03;;;7.16;74.50
77110;BME280;66062;52.464;16.922;2023-05-18T00:14:19;101625.72;;;7.27;74.50
77110;BME280;66062;52.464;16.922;2023-05-18T00:16:45;101616.88;;;7.13;74.50
77110;BME280;66062;52.464;16.922;2023-05-18T00:19:12;101627.00;;;7.06;76.65
77110;BME280;66062;52.464;16.922;2023-05-18T00:21:41;101618.00;;;6.95;76.47
77110;BME280;66062;52.464;16.922;2023-05-18T00:24:07;101611.34;;;6.87;77.98
77110;BME280;66062;52.464;16.922;2023-05-18T00:26:36;101629.63;;;6.78;79.41
77110;BME280;66062;52.464;16.922;2023-05-18T00:29:01;101628.63;;;6.65;78.67
77110;BME280;66062;52.464;16.922;2023-05-18T00:31:27;101619.66;;;6.52;79.67
77110;BME280;66062;52.464;16.922;2023-05-18T00:33:52;101623.97;;;6.54;80.21
77110;BME280;66062;52.464;16.922;2023-05-18T00:36:17;101609.25;;;6.49;80.97
77110;BME280;66062;52.464;16.922;2023-05-18T00:38:43;101611.97;;;6.47;81.72
77110;BME280;66062;52.464;16.922;2023-05-18T00:41:09;101607.88;;;6.41;82.97
77110;BME280;66062;52.464;16.922;2023-05-18T00:43:34;101597.63;;;6.35;82.22
77110;BME280;66062;52.464;16.922;2023-05-18T00:46:00;101598.09;;;6.28;82.92
77110;BME280;66062;52.464;16.922;2023-05-18T00:48:25;101590.13;;;6.28;81.99
77110;BME280;66062;52.464;16.922;2023-05-18T00:50:50;101591.84;;;6.29;81.36
77110;BME280;66062;52.464;16.922;2023-05-18T00:53:16;101589.47;;;6.24;80.08
77110;BME280;66062;52.464;16.922;2023-05-18T00:55:41;101592.34;;;6.20;80.09
77110;BME280;66062;52.464;16.922;2023-05-18T00:58:07;101587.75;;;6.23;80.41
77110;BME280;66062;52.464;16.922;2023-05-18T01:00:32;101598.50;;;6.36;79.66
77110;BME280;66062;52.464;16.922;2023-05-18T01:03:02;101601.44;;;6.16;79.42
77110;BME280;66062;52.464;16.922;2023-05-18T01:05:28;101600.84;;;6.11;81.46
77110;BME280;66062;52.464;16.922;2023-05-18T01:07:54;101599.84;;;5.97;82.07
77110;BME280;66062;52.464;16.922;2023-05-18T01:10:20;101613.41;;;5.91;81.31
77110;BME280;66062;52.464;16.922;2023-05-18T01:12:50;101611.94;;;5.86;82.06
77110;BME280;66062;52.464;16.922;2023-05-18T01:15:19;101619.34;;;5.79;83.21
77110;BME280;66062;52.464;16.922;2023-05-18T01:20:59;101631.84;;;5.77;83.15
77110;BME280;66062;52.464;16.922;2023-05-18T01:24:00;101627.41;;;5.78;83.42
77110;BME280;66062;52.464;16.922;2023-05-18T01:26:30;101636.00;;;5.66;84.13
77110;BME280;66062;52.464;16.922;2023-05-18T01:29:04;101631.38;;;5.69;84.20
77110;BME280;66062;52.464;16.922;2023-05-18T01:31:31;101633.97;;;5.71;84.34
77110;BME280;66062;52.464;16.922;2023-05-18T01:33:56;101639.84;;;5.60;85.34
77110;BME280;66062;52.464;16.922;2023-05-18T01:36:21;101647.34;;;5.52;86.49
77110;BME280;66062;52.464;16.922;2023-05-18T01:38:48;101644.41;;;5.41;86.40
77110;BME280;66062;52.464;16.922;2023-05-18T01:41:21;101649.53;;;5.44;86.60
77110;BME280;66062;52.464;16.922;2023-05-18T01:44:14;101649.53;;;5.44;86.06
77110;BME280;66062;52.464;16.922;2023-05-18T01:52:38;101670.69;;;5.28;86.33
77110;BME280;66062;52.464;16.922;2023-05-18T01:55:08;101669.66;;;5.31;86.12
77110;BME280;66062;52.464;16.922;2023-05-18T01:57:35;101668.81;;;5.30;87.89
77110;BME280;66062;52.464;16.922;2023-05-18T02:00:01;101661.66;;;5.15;90.46
77110;BME280;66062;52.464;16.922;2023-05-18T02:02:34;101662.75;;;5.11;91.91
77110;BME280;66062;52.464;16.922;2023-05-18T02:05:00;101660.66;;;5.00;91.39
77110;BME280;66062;52.464;16.922;2023-05-18T02:07:27;101666.56;;;4.88;92.82
77110;BME280;66062;52.464;16.922;2023-05-18T02:09:52;101664.53;;;4.93;92.23
77110;BME280;66062;52.464;16.922;2023-05-18T02:12:18;101665.97;;;5.00;89.36
77110;BME280;66062;52.464;16.922;2023-05-18T02:14:43;101659.88;;;5.15;89.80
77110;BME280;66062;52.464;16.922;2023-05-18T02:17:09;101667.81;;;4.98;91.43
77110;BME280;66062;52.464;16.922;2023-05-18T02:19:35;101666.75;;;4.85;92.58
77110;BME280;66062;52.464;16.922;2023-05-18T02:22:06;101663.94;;;4.71;92.96
77110;BME280;66062;52.464;16.922;2023-05-18T02:24:32;101674.03;;;4.63;95.42
77110;BME280;66062;52.464;16.922;2023-05-18T02:26:57;101670.28;;;4.50;95.86
77110;BME280;66062;52.464;16.922;2023-05-18T02:29:23;101680.00;;;4.49;96.42
77110;BME280;66062;52.464;16.922;2023-05-18T02:31:48;101675.00;;;4.43;96.92
77110;BME280;66062;52.464;16.922;2023-05-18T02:34:14;101676.66;;;4.46;96.82
77110;BME280;66062;52.464;16.922;2023-05-18T02:36:41;101676.03;;;4.41;95.96
77110;BME280;66062;52.464;16.922;2023-05-18T02:39:08;101671.50;;;4.43;94.32
77110;BME280;66062;52.464;16.922;2023-05-18T02:41:37;101662.81;;;4.58;91.73
77110;BME280;66062;52.464;16.922;2023-05-18T02:44:03;101671.69;;;4.57;90.57
77110;BME280;66062;52.464;16.922;2023-05-18T02:46:29;101679.31;;;4.63;90.89
77110;BME280;66062;52.464;16.922;2023-05-18T02:48:55;101676.03;;;4.58;90.18
77110;BME280;66062;52.464;16.922;2023-05-18T02:51:21;101684.81;;;4.58;89.93
77110;BME280;66062;52.464;16.922;2023-05-18T02:53:47;101686.72;;;4.56;89.92
77110;BME280;66062;52.464;16.922;2023-05-18T02:56:12;101685.84;;;4.56;90.88
77110;BME280;66062;52.464;16.922;2023-05-18T02:58:38;101679.75;;;4.54;89.21
77110;BME280;66062;52.464;16.922;2023-05-18T03:01:04;101689.75;;;4.66;88.09
77110;BME280;66062;52.464;16.922;2023-05-18T03:03:33;101686.19;;;4.67;88.70
77110;BME280;66062;52.464;16.922;2023-05-18T03:06:01;101683.94;;;4.77;87.25
77110;BME280;66062;52.464;16.922;2023-05-18T03:08:27;101682.91;;;4.79;87.00
77110;BME280;66062;52.464;16.922;2023-05-18T03:10:53;101687.50;;;4.76;87.80
77110;BME280;66062;52.464;16.922;2023-05-18T03:13:18;101685.31;;;4.84;88.05
77110;BME280;66062;52.464;16.922;2023-05-18T03:15:44;101693.47;;;4.79;86.74
77110;BME280;66062;52.464;16.922;2023-05-18T03:18:10;101702.28;;;4.80;87.48
77110;BME280;66062;52.464;16.922;2023-05-18T03:20:35;101702.50;;;4.75;87.32
77110;BME280;66062;52.464;16.922;2023-05-18T03:23:02;101695.81;;;4.68;87.96
77110;BME280;66062;52.464;16.922;2023-05-18T03:25:28;101695.34;;;4.60;87.27
77110;BME280;66062;52.464;16.922;2023-05-18T03:27:54;101702.09;;;4.65;88.56
77110;BME280;66062;52.464;16.922;2023-05-18T03:30:19;101703.72;;;4.68;88.60
77110;BME280;66062;52.464;16.922;2023-05-18T03:32:46;101705.44;;;4.69;89.10
77110;BME280;66062;52.464;16.922;2023-05-18T03:35:12;101713.38;;;4.69;87.61
77110;BME280;66062;52.464;16.922;2023-05-18T03:37:38;101711.81;;;4.65;88.49
77110;BME280;66062;52.464;16.922;2023-05-18T03:40:08;101712.47;;;4.70;86.89
77110;BME280;66062;52.464;16.922;2023-05-18T03:42:35;101709.81;;;4.70;87.64
77110;BME280;66062;52.464;16.922;2023-05-18T03:45:00;101716.53;;;4.77;89.39
77110;BME280;66062;52.464;16.922;2023-05-18T03:47:28;101710.59;;;4.89;87.22
77110;BME280;66062;52.464;16.922;2023-05-18T03:49:54;101700.09;;;4.88;88.10
77110;BME280;66062;52.464;16.922;2023-05-18T03:52:19;101710.91;;;4.83;87.14
77110;BME280;66062;52.464;16.922;2023-05-18T03:54:47;101711.63;;;4.87;86.37
77110;BME280;66062;52.464;16.922;2023-05-18T03:57:13;101715.91;;;4.89;87.26
77110;BME280;66062;52.464;16.922;2023-05-18T03:59:38;101719.34;;;4.91;87.33
77110;BME280;66062;52.464;16.922;2023-05-18T04:02:04;101721.34;;;4.86;86.77
77110;BME280;66062;52.464;16.922;2023-05-18T04:04:30;101729.41;;;4.83;86.72
77110;BME280;66062;52.464;16.922;2023-05-18T04:06:56;101725.78;;;4.86;86.69
77110;BME280;66062;52.464;16.922;2023-05-18T04:09:21;101727.91;;;4.96;86.58
77110;BME280;66062;52.464;16.922;2023-05-18T04:11:48;101729.91;;;5.08;85.68
77110;BME280;66062;52.464;16.922;2023-05-18T04:14:13;101735.44;;;5.21;85.25
77110;BME280;66062;52.464;16.922;2023-05-18T04:16:40;101738.47;;;5.31;86.27
77110;BME280;66062;52.464;16.922;2023-05-18T04:19:05;101745.81;;;5.43;84.99
77110;BME280;66062;52.464;16.922;2023-05-18T04:21:31;101754.91;;;5.37;83.01
77110;BME280;66062;52.464;16.922;2023-05-18T04:24:03;101751.47;;;5.52;83.54
77110;BME280;66062;52.464;16.922;2023-05-18T04:26:30;101748.72;;;5.71;83.29
77110;BME280;66062;52.464;16.922;2023-05-18T04:28:56;101749.94;;;5.81;83.12
77110;BME280;66062;52.464;16.922;2023-05-18T04:31:27;101752.22;;;5.89;82.81
77110;BME280;66062;52.464;16.922;2023-05-18T04:33:54;101763.19;;;5.98;82.18
77110;BME280;66062;52.464;16.922;2023-05-18T04:36:19;101757.66;;;6.19;81.00
77110;BME280;66062;52.464;16.922;2023-05-18T04:38:45;101774.91;;;6.26;79.61
77110;BME280;66062;52.464;16.922;2023-05-18T04:41:11;101764.81;;;6.17;79.74
77110;BME280;66062;52.464;16.922;2023-05-18T04:43:36;101773.47;;;6.36;78.65
77110;BME280;66062;52.464;16.922;2023-05-18T04:46:02;101771.63;;;6.69;77.19
77110;BME280;66062;52.464;16.922;2023-05-18T04:48:29;101771.75;;;6.82;76.17
77110;BME280;66062;52.464;16.922;2023-05-18T04:50:54;101779.97;;;6.93;75.84
77110;BME280;66062;52.464;16.922;2023-05-18T04:53:21;101777.13;;;6.96;75.89
77110;BME280;66062;52.464;16.922;2023-05-18T04:55:50;101776.19;;;6.81;77.12
77110;BME280;66062;52.464;16.922;2023-05-18T04:58:16;101779.84;;;7.10;76.27
77110;BME280;66062;52.464;16.922;2023-05-18T05:00:42;101773.47;;;7.28;75.76
77110;BME280;66062;52.464;16.922;2023-05-18T05:03:08;101780.72;;;7.41;75.35
77110;BME280;66062;52.464;16.922;2023-05-18T05:05:33;101778.38;;;7.64;74.61
77110;BME280;66062;52.464;16.922;2023-05-18T05:07:59;101780.09;;;7.65;74.27
77110;BME280;66062;52.464;16.922;2023-05-18T05:10:25;101779.16;;;7.81;72.96
77110;BME280;66062;52.464;16.922;2023-05-18T05:12:52;101782.78;;;7.80;73.12
77110;BME280;66062;52.464;16.922;2023-05-18T05:15:18;101776.31;;;7.98;72.93
77110;BME280;66062;52.464;16.922;2023-05-18T05:17:47;101785.25;;;8.11;71.89
77110;BME280;66062;52.464;16.922;2023-05-18T05:20:13;101784.38;;;8.25;71.59
77110;BME280;66062;52.464;16.922;2023-05-18T05:22:39;101778.78;;;8.43;71.18
77110;BME280;66062;52.464;16.922;2023-05-18T05:25:05;101794.19;;;8.52;69.32
77110;BME280;66062;52.464;16.922;2023-05-18T05:27:30;101791.50;;;8.67;69.21
77110;BME280;66062;52.464;16.922;2023-05-18T05:29:56;101787.88;;;8.68;69.14
77110;BME280;66062;52.464;16.922;2023-05-18T05:32:21;101789.09;;;8.76;69.31
77110;BME280;66062;52.464;16.922;2023-05-18T05:34:47;101786.28;;;8.92;68.92
77110;BME280;66062;52.464;16.922;2023-05-18T05:37:14;101787.00;;;9.08;68.27
77110;BME280;66062;52.464;16.922;2023-05-18T05:39:40;101790.94;;;9.15;68.01
77110;BME280;66062;52.464;16.922;2023-05-18T05:42:05;101788.63;;;9.23;68.21
77110;BME280;66062;52.464;16.922;2023-05-18T05:44:31;101785.75;;;9.26;67.88
77110;BME280;66062;52.464;16.922;2023-05-18T05:46:57;101786.97;;;9.48;67.28
77110;BME280;66062;52.464;16.922;2023-05-18T05:49:22;101784.56;;;9.70;67.00
77110;BME280;66062;52.464;16.922;2023-05-18T05:51:48;101785.63;;;9.80;66.40
77110;BME280;66062;52.464;16.922;2023-05-18T05:54:13;101793.19;;;9.86;66.22
77110;BME280;66062;52.464;16.922;2023-05-18T05:56:39;101792.66;;;10.06;64.71
77110;BME280;66062;52.464;16.922;2023-05-18T05:59:04;101800.38;;;10.23;63.40
77110;BME280;66062;52.464;16.922;2023-05-18T06:01:30;101793.84;;;10.02;65.14
77110;BME280;66062;52.464;16.922;2023-05-18T06:03:56;101804.84;;;10.36;63.90
77110;BME280;66062;52.464;16.922;2023-05-18T06:06:21;101802.56;;;10.55;63.03
77110;BME280;66062;52.464;16.922;2023-05-18T06:08:47;101797.22;;;10.42;61.35
77110;BME280;66062;52.464;16.922;2023-05-18T06:11:12;101797.38;;;10.41;62.46
77110;BME280;66062;52.464;16.922;2023-05-18T06:13:37;101792.34;;;10.72;61.53
77110;BME280;66062;52.464;16.922;2023-05-18T06:16:03;101799.56;;;10.83;61.94
77110;BME280;66062;52.464;16.922;2023-05-18T06:18:28;101793.47;;;11.52;60.58
77110;BME280;66062;52.464;16.922;2023-05-18T06:20:54;101798.25;;;12.28;59.26
77110;BME280;66062;52.464;16.922;2023-05-18T06:23:19;101792.72;;;11.85;59.12
77110;BME280;66062;52.464;16.922;2023-05-18T06:25:47;101793.47;;;12.21;56.77
77110;BME280;66062;52.464;16.922;2023-05-18T06:28:13;101793.56;;;13.50;52.96
77110;BME280;66062;52.464;16.922;2023-05-18T06:30:39;101789.31;;;14.40;49.39
77110;BME280;66062;52.464;16.922;2023-05-18T06:33:05;101785.09;;;16.10;46.34
77110;BME280;66062;52.464;16.922;2023-05-18T06:35:30;101784.47;;;16.90;45.04
77110;BME280;66062;52.464;16.922;2023-05-18T06:37:56;101781.59;;;18.40;41.72
77110;BME280;66062;52.464;16.922;2023-05-18T06:40:21;101787.59;;;16.68;41.72
77110;BME280;66062;52.464;16.922;2023-05-18T06:42:47;101789.59;;;19.00;36.00
77110;BME280;66062;52.464;16.922;2023-05-18T06:45:13;101799.06;;;15.00;43.12
77110;BME280;66062;52.464;16.922;2023-05-18T06:47:39;101788.34;;;17.05;40.91
77110;BME280;66062;52.464;16.922;2023-05-18T06:50:04;101801.00;;;19.19;37.09
77110;BME280;66062;52.464;16.922;2023-05-18T06:52:30;101795.06;;;19.32;35.74
77110;BME280;66062;52.464;16.922;2023-05-18T06:54:56;101799.28;;;16.86;41.39
77110;BME280;66062;52.464;16.922;2023-05-18T06:57:21;101800.81;;;16.52;40.71
77110;BME280;66062;52.464;16.922;2023-05-18T06:59:47;101810.84;;;16.69;38.33
77110;BME280;66062;52.464;16.922;2023-05-18T07:02:18;101802.41;;;17.62;39.29
77110;BME280;66062;52.464;16.922;2023-05-18T07:04:44;101808.78;;;16.53;38.39
77110;BME280;66062;52.464;16.922;2023-05-18T07:07:13;101819.50;;;15.51;42.27
77110;BME280;66062;52.464;16.922;2023-05-18T07:09:38;101811.94;;;17.39;39.91
77110;BME280;66062;52.464;16.922;2023-05-18T07:12:07;101797.75;;;17.37;39.46
77110;BME280;66062;52.464;16.922;2023-05-18T07:14:33;101800.00;;;18.62;36.11
77110;BME280;66062;52.464;16.922;2023-05-18T07:16:59;101806.63;;;19.91;33.36
77110;BME280;66062;52.464;16.922;2023-05-18T07:19:28;101797.53;;;21.17;33.38
77110;BME280;66062;52.464;16.922;2023-05-18T07:22:09;101795.09;;;22.64;28.90
77110;BME280;66062;52.464;16.922;2023-05-18T07:24:35;101794.44;;;23.33;27.55
77110;BME280;66062;52.464;16.922;2023-05-18T07:27:00;101792.84;;;22.23;27.77
77110;BME280;66062;52.464;16.922;2023-05-18T07:29:26;101795.94;;;19.81;32.63
77110;BME280;66062;52.464;16.922;2023-05-18T07:32:00;101789.19;;;22.16;28.15
77110;BME280;66062;52.464;16.922;2023-05-18T07:34:26;101784.25;;;22.20;26.83
77110;BME280;66062;52.464;16.922;2023-05-18T07:36:55;101788.19;;;21.42;30.11
77110;BME280;66062;52.464;16.922;2023-05-18T07:39:21;101783.53;;;22.76;27.55
77110;BME280;66062;52.464;16.922;2023-05-18T07:41:54;101793.84;;;21.32;30.75
77110;BME280;66062;52.464;16.922;2023-05-18T07:44:28;101789.00;;;19.38;32.02
77110;BME280;66062;52.464;16.922;2023-05-18T07:46:55;101791.47;;;21.29;30.25
77110;BME280;66062;52.464;16.922;2023-05-18T07:49:21;101789.50;;;21.46;27.65
77110;BME280;66062;52.464;16.922;2023-05-18T07:51:47;101795.34;;;20.73;29.73
77110;BME280;66062;52.464;16.922;2023-05-18T07:54:13;101797.28;;;17.24;36.63
77110;BME280;66062;52.464;16.922;2023-05-18T07:56:38;101792.72;;;20.57;31.72
77110;BME280;66062;52.464;16.922;2023-05-18T07:59:04;101795.94;;;20.61;32.58
77110;BME280;66062;52.464;16.922;2023-05-18T08:01:30;101797.41;;;21.02;31.79
77110;BME280;66062;52.464;16.922;2023-05-18T08:03:56;101787.50;;;22.59;28.59
77110;BME280;66062;52.464;16.922;2023-05-18T08:06:21;101787.13;;;23.34;27.22
77110;BME280;66062;52.464;16.922;2023-05-18T08:08:48;101791.00;;;19.28;31.94
77110;BME280;66062;52.464;16.922;2023-05-18T08:11:13;101797.16;;;19.54;32.32
77110;BME280;66062;52.464;16.922;2023-05-18T08:13:39;101793.31;;;20.28;32.16
77110;BME280;66062;52.464;16.922;2023-05-18T08:16:04;101790.22;;;21.63;28.94
77110;BME280;66062;52.464;16.922;2023-05-18T08:18:30;101790.28;;;23.37;26.39
77110;BME280;66062;52.464;16.922;2023-05-18T08:20:55;101773.09;;;24.42;23.24
77110;BME280;66062;52.464;16.922;2023-05-18T08:23:24;101779.75;;;23.49;25.77
77110;BME280;66062;52.464;16.922;2023-05-18T08:25:49;101775.13;;;23.71;25.98
77110;BME280;66062;52.464;16.922;2023-05-18T08:28:15;101773.47;;;24.86;23.95
77110;BME280;66062;52.464;16.922;2023-05-18T08:30:41;101770.28;;;25.43;23.64
77110;BME280;66062;52.464;16.922;2023-05-18T08:33:06;101779.81;;;24.11;24.86
77110;BME280;66062;52.464;16.922;2023-05-18T08:35:32;101781.09;;;22.52;26.88
77110;BME280;66062;52.464;16.922;2023-05-18T08:37:57;101775.19;;;23.35;26.04
77110;BME280;66062;52.464;16.922;2023-05-18T08:40:25;101776.59;;;22.00;28.00
77110;BME280;66062;52.464;16.922;2023-05-18T08:43:02;101758.22;;;24.16;24.50
77110;BME280;66062;52.464;16.922;2023-05-18T08:45:43;101768.63;;;23.29;27.64
77110;BME280;66062;52.464;16.922;2023-05-18T08:48:14;101768.72;;;21.30;31.05
77110;BME280;66062;52.464;16.922;2023-05-18T08:50:40;101764.31;;;19.57;31.09
77110;BME280;66062;52.464;16.922;2023-05-18T08:53:08;101764.81;;;21.70;29.45
77110;BME280;66062;52.464;16.922;2023-05-18T08:55:34;101763.75;;;23.03;26.04
77110;BME280;66062;52.464;16.922;2023-05-18T08:58:02;101758.72;;;23.99;25.23
77110;BME280;66062;52.464;16.922;2023-05-18T09:00:28;101749.88;;;25.52;23.96
77110;BME280;66062;52.464;16.922;2023-05-18T09:02:54;101761.19;;;21.78;28.32
77110;BME280;66062;52.464;16.922;2023-05-18T09:05:21;101763.84;;;20.33;32.21
77110;BME280;66062;52.464;16.922;2023-05-18T09:07:49;101761.00;;;22.82;28.36
77110;BME280;66062;52.464;16.922;2023-05-18T09:10:16;101769.66;;;19.01;33.12
77110;BME280;66062;52.464;16.922;2023-05-18T09:12:42;101755.16;;;21.53;30.23
77110;BME280;66062;52.464;16.922;2023-05-18T09:15:09;101762.97;;;19.45;33.56
77110;BME280;66062;52.464;16.922;2023-05-18T09:17:35;101750.13;;;23.03;29.51
77110;BME280;66062;52.464;16.922;2023-05-18T09:20:01;101747.28;;;22.90;27.19
77110;BME280;66062;52.464;16.922;2023-05-18T09:22:29;101743.44;;;26.44;23.91
77110;BME280;66062;52.464;16.922;2023-05-18T09:24:55;101749.03;;;21.06;29.70
77110;BME280;66062;52.464;16.922;2023-05-18T09:27:22;101744.38;;;21.22;31.35
77110;BME280;66062;52.464;16.922;2023-05-18T09:29:54;101750.31;;;23.02;28.52
77110;BME280;66062;52.464;16.922;2023-05-18T09:32:23;101742.47;;;24.46;26.18
77110;BME280;66062;52.464;16.922;2023-05-18T09:34:49;101739.41;;;23.94;26.83
77110;BME280;66062;52.464;16.922;2023-05-18T09:37:15;101735.47;;;22.03;29.07
77110;BME280;66062;52.464;16.922;2023-05-18T09:39:42;101738.41;;;23.46;27.82
77110;BME280;66062;52.464;16.922;2023-05-18T09:42:07;101733.59;;;24.38;29.28
77110;BME280;66062;52.464;16.922;2023-05-18T09:44:33;101747.75;;;23.85;27.25
77110;BME280;66062;52.464;16.922;2023-05-18T09:46:59;101729.97;;;26.87;24.05
77110;BME280;66062;52.464;16.922;2023-05-18T09:49:28;101743.53;;;22.11;27.35
77110;BME280;66062;52.464;16.922;2023-05-18T09:51:53;101739.22;;;22.02;27.49
77110;BME280;66062;52.464;16.922;2023-05-18T09:54:21;101741.47;;;21.99;29.81
77110;BME280;66062;52.464;16.922;2023-05-18T09:56:48;101741.84;;;20.59;31.17
77110;BME280;66062;52.464;16.922;2023-05-18T09:59:14;101737.44;;;20.89;32.13
77110;BME280;66062;52.464;16.922;2023-05-18T10:02:06;101738.38;;;22.02;31.71
77110;BME280;66062;52.464;16.922;2023-05-18T10:04:37;101736.09;;;23.70;28.14
77110;BME280;66062;52.464;16.922;2023-05-18T10:07:14;101726.38;;;23.61;26.80
77110;BME280;66062;52.464;16.922;2023-05-18T10:09:40;101724.13;;;24.34;27.14
77110;BME280;66062;52.464;16.922;2023-05-18T10:12:16;101735.41;;;22.62;28.16
77110;BME280;66062;52.464;16.922;2023-05-18T10:14:43;101732.28;;;21.48;30.23
77110;BME280;66062;52.464;16.922;2023-05-18T10:17:11;101743.47;;;20.37;32.27
77110;BME280;66062;52.464;16.922;2023-05-18T10:19:37;101744.31;;;22.85;29.79
77110;BME280;66062;52.464;16.922;2023-05-18T10:22:05;101743.25;;;20.78;31.18
77110;BME280;66062;52.464;16.922;2023-05-18T10:24:34;101754.47;;;19.81;34.78
77110;BME280;66062;52.464;16.922;2023-05-18T10:27:01;101746.34;;;22.03;30.12
77110;BME280;66062;52.464;16.922;2023-05-18T10:29:29;101738.66;;;21.09;30.66
77110;BME280;66062;52.464;16.922;2023-05-18T10:31:58;101747.03;;;19.34;32.78
77110;BME280;66062;52.464;16.922;2023-05-18T10:34:28;101754.09;;;18.11;37.20
77110;BME280;66062;52.464;16.922;2023-05-18T10:36:55;101755.22;;;18.00;38.88
77110;BME280;66062;52.464;16.922;2023-05-18T10:39:21;101749.47;;;18.03;38.65
77110;BME280;66062;52.464;16.922;2023-05-18T10:41:49;101746.91;;;18.61;36.04
77110;BME280;66062;52.464;16.922;2023-05-18T10:44:16;101753.56;;;17.02;39.70
77110;BME280;66062;52.464;16.922;2023-05-18T10:46:42;101744.59;;;17.55;37.21
77110;BME280;66062;52.464;16.922;2023-05-18T10:49:10;101733.16;;;19.53;35.57
77110;BME280;66062;52.464;16.922;2023-05-18T10:51:40;101736.97;;;20.55;32.84
77110;BME280;66062;52.464;16.922;2023-05-18T10:54:12;101727.22;;;21.74;30.37
77110;BME280;66062;52.464;16.922;2023-05-18T10:56:41;101720.75;;;22.63;29.30
77110;BME280;66062;52.464;16.922;2023-05-18T10:59:07;101724.31;;;21.98;31.60
77110;BME280;66062;52.464;16.922;2023-05-18T11:01:34;101735.72;;;20.18;33.43
77110;BME280;66062;52.464;16.922;2023-05-18T11:04:02;101735.03;;;20.32;32.76
77110;BME280;66062;52.464;16.922;2023-05-18T11:06:28;101738.19;;;18.84;36.94
77110;BME280;66062;52.464;16.922;2023-05-18T11:08:54;101739.38;;;17.18;39.96
77110;BME280;66062;52.464;16.922;2023-05-18T11:11:22;101738.44;;;17.45;39.81
77110;BME280;66062;52.464;16.922;2023-05-18T11:13:49;101739.59;;;19.52;35.70
77110;BME280;66062;52.464;16.922;2023-05-18T11:16:16;101737.22;;;19.57;35.97
77110;BME280;66062;52.464;16.922;2023-05-18T11:18:44;101740.97;;;20.98;35.93
77110;BME280;66062;52.464;16.922;2023-05-18T11:24:21;101729.78;;;17.16;40.40
77110;BME280;66062;52.464;16.922;2023-05-18T11:26:56;101731.00;;;18.16;39.37
77110;BME280;66062;52.464;16.922;2023-05-18T11:29:42;101743.50;;;17.04;42.30
77110;BME280;66062;52.464;16.922;2023-05-18T11:32:27;101737.03;;;17.76;39.36
77110;BME280;66062;52.464;16.922;2023-05-18T11:34:54;101736.03;;;16.71;41.62
77110;BME280;66062;52.464;16.922;2023-05-18T11:42:33;101736.53;;;18.07;38.88
77110;BME280;66062;52.464;16.922;2023-05-18T11:45:08;101736.84;;;18.88;37.91
77110;BME280;66062;52.464;16.922;2023-05-18T11:47:35;101735.13;;;18.87;37.92
77110;BME280;66062;52.464;16.922;2023-05-18T11:50:01;101746.38;;;16.48;40.39
77110;BME280;66062;52.464;16.922;2023-05-18T11:52:27;101740.44;;;16.17;42.28
77110;BME280;66062;52.464;16.922;2023-05-18T11:54:59;101741.97;;;16.30;42.96
77110;BME280;66062;52.464;16.922;2023-05-18T12:00:01;101736.31;;;17.31;40.28
77110;BME280;66062;52.464;16.922;2023-05-18T12:02:32;101744.88;;;17.08;40.64
77110;BME280;66062;52.464;16.922;2023-05-18T12:05:00;101745.59;;;17.54;41.77
77110;BME280;66062;52.464;16.922;2023-05-18T12:07:28;101736.53;;;18.15;37.43
77110;BME280;66062;52.464;16.922;2023-05-18T12:10:03;101735.19;;;19.59;35.84
77110;BME280;66062;52.464;16.922;2023-05-18T12:12:29;101734.47;;;18.09;38.78
77110;BME280;66062;52.464;16.922;2023-05-18T12:14:57;101741.44;;;19.28;36.97
77110;BME280;66062;52.464;16.922;2023-05-18T12:17:36;101721.13;;;19.80;34.52
77110;BME280;66062;52.464;16.922;2023-05-18T12:20:03;101729.75;;;21.98;30.81
77110;BME280;66062;52.464;16.922;2023-05-18T12:22:29;101712.81;;;22.47;29.64
77110;BME280;66062;52.464;16.922;2023-05-18T12:24:54;101718.03;;;22.99;32.20
77110;BME280;66062;52.464;16.922;2023-05-18T12:27:20;101716.59;;;21.12;32.48
77110;BME280;66062;52.464;16.922;2023-05-18T12:29:46;101726.06;;;19.60;34.40
77110;BME280;66062;52.464;16.922;2023-05-18T12:32:12;101724.56;;;17.83;37.87
77110;BME280;66062;52.464;16.922;2023-05-18T12:34:38;101719.63;;;19.13;36.09
77110;BME280;66062;52.464;16.922;2023-05-18T12:37:05;101713.78;;;19.97;35.75
77110;BME280;66062;52.464;16.922;2023-05-18T12:39:32;101708.28;;;22.03;30.80
77110;BME280;66062;52.464;16.922;2023-05-18T12:42:11;101694.28;;;21.77;30.53
77110;BME280;66062;52.464;16.922;2023-05-18T12:44:37;101692.34;;;23.08;29.35
77110;BME280;66062;52.464;16.922;2023-05-18T12:47:02;101693.88;;;21.65;31.28
77110;BME280;66062;52.464;16.922;2023-05-18T12:49:28;101703.47;;;19.92;33.66
77110;BME280;66062;52.464;16.922;2023-05-18T12:51:54;101694.91;;;19.32;36.38
77110;BME280;66062;52.464;16.922;2023-05-18T12:54:29;101702.66;;;17.61;39.66
77110;BME280;66062;52.464;16.922;2023-05-18T12:56:55;101711.25;;;17.90;39.96
77110;BME280;66062;52.464;16.922;2023-05-18T12:59:25;101704.72;;;19.09;35.70
77110;BME280;66062;52.464;16.922;2023-05-18T13:01:55;101699.25;;;20.29;35.53
77110;BME280;66062;52.464;16.922;2023-05-18T13:04:21;101697.75;;;20.88;32.78
77110;BME280;66062;52.464;16.922;2023-05-18T13:06:47;101696.38;;;22.04;31.38